Time;durP1;ratioP1;P1;durP2;ratioP2;P2;SDS_P1;SDS_P2;PMS_P1;PMS_P2;Temp;Humidity;BMP_temperature;BMP_pressure;BME280_temperature;BME280_humidity;BME280_pressure;Samples;Min_cycle;Max_cycle;Signal;HPM_P1;HPM_P2
2023/01/13 00:01:35;;;;;;;4.1;3;;;;;;;2.96;88.94531;937.4939;;;;
2023/01/13 00:04:03;;;;;;;3;2.5;;;;;;;2.93;89.00586;937.4275;;;;
2023/01/13 00:06:38;;;;;;;5;2.7;;;;;;;2.86;88.64453;937.5078;;;;
2023/01/13 00:09:03;;;;;;;4.8;3.1;;;;;;;2.76;89.16211;937.5021;;;;
2023/01/13 00:11:44;;;;;;;4.5;2.9;;;;;;;2.57;89.99414;937.4263;;;;
2023/01/13 00:14:12;;;;;;;3.6;2.4;;;;;;;2.41;90.87891;937.3095;;;;
2023/01/13 00:16:38;;;;;;;3.9;2.5;;;;;;;2.27;91.1748;937.2999;;;;
2023/01/13 00:19:15;;;;;;;2.8;2;;;;;;;2.25;91.34961;937.2426;;;;
2023/01/13 00:21:41;;;;;;;3.7;2.3;;;;;;;2.24;91.48047;937.1948;;;;
2023/01/13 00:24:07;;;;;;;2.8;1.9;;;;;;;2.2;91.125;937.1537;;;;
2023/01/13 00:26:34;;;;;;;1.5;1.3;;;;;;;2.34;90.49316;937.0731;;;;
2023/01/13 00:28:58;;;;;;;1.6;1.4;;;;;;;2.42;90.00879;937.0467;;;;
2023/01/13 00:31:23;;;;;;;3.9;1.6;;;;;;;2.49;89.9209;937.0663;;;;
2023/01/13 00:33:51;;;;;;;1.4;1.3;;;;;;;2.52;88.8291;937.0722;;;;
2023/01/13 00:36:21;;;;;;;1.6;1.3;;;;;;;2.65;88.0166;937.0161;;;;
2023/01/13 00:38:50;;;;;;;1.4;1.1;;;;;;;2.76;87.29883;936.9918;;;;
2023/01/13 00:45:02;;;;;;;2.5;1.6;;;;;;;2.75;87.17383;936.7965;;;;
2023/01/13 00:47:27;;;;;;;1.7;1.3;;;;;;;2.62;87.70801;936.8318;;;;
2023/01/13 00:49:53;;;;;;;2.3;1.4;;;;;;;2.51;88.44629;936.7473;;;;
2023/01/13 00:52:18;;;;;;;2.1;1.4;;;;;;;2.29;89.36621;936.7564;;;;
2023/01/13 00:54:45;;;;;;;1.5;1.3;;;;;;;2.31;89.72656;936.8331;;;;
2023/01/13 00:57:44;;;;;;;2.2;1.4;;;;;;;2.38;89.47266;936.8005;;;;
2023/01/13 01:00:18;;;;;;;1.8;1.4;;;;;;;2.49;89.00195;936.7971;;;;
2023/01/13 01:02:54;;;;;;;1.9;1.6;;;;;;;2.58;88.9873;936.9283;;;;
2023/01/13 01:05:19;;;;;;;1.5;1.3;;;;;;;2.56;88.96191;936.8742;;;;
2023/01/13 01:07:45;;;;;;;2.2;1.7;;;;;;;2.37;89.37207;937.0304;;;;
2023/01/13 01:10:15;;;;;;;1.8;1.5;;;;;;;2.07;91.09863;937.101;;;;
2023/01/13 01:12:40;;;;;;;3.2;1.7;;;;;;;2.1;91.50684;937.0598;;;;
2023/01/13 01:15:10;;;;;;;3.8;1.9;;;;;;;2.08;91.43359;937.1091;;;;
2023/01/13 01:17:40;;;;;;;2.3;1.6;;;;;;;1.99;91.69629;937.1494;;;;
2023/01/13 01:20:05;;;;;;;2.9;1.9;;;;;;;2;91.73145;937.0995;;;;
2023/01/13 01:22:32;;;;;;;2.8;1.6;;;;;;;2.04;91.37012;937.1303;;;;
2023/01/13 01:24:57;;;;;;;6.3;1.9;;;;;;;2.05;91.46191;937.1031;;;;
2023/01/13 01:27:22;;;;;;;3.5;2.8;;;;;;;2.06;91.54395;937.1329;;;;
2023/01/13 01:29:47;;;;;;;2.6;2.4;;;;;;;2.06;91.39844;937.1454;;;;
2023/01/13 01:32:13;;;;;;;2.2;1.6;;;;;;;2.03;91.32324;937.2234;;;;
2023/01/13 01:35:12;;;;;;;2.4;1.9;;;;;;;2.06;91.18359;937.1774;;;;
2023/01/13 01:37:41;;;;;;;2.3;1.6;;;;;;;2;90.9375;937.2797;;;;
2023/01/13 01:40:06;;;;;;;2.3;1.8;;;;;;;1.78;91.75195;937.3056;;;;
2023/01/13 01:44:57;;;;;;;3.1;1.5;;;;;;;1.67;92.21875;937.2484;;;;
2023/01/13 01:47:22;;;;;;;1.3;1.2;;;;;;;1.61;92.33008;937.2296;;;;
2023/01/13 01:49:47;;;;;;;1.6;1.3;;;;;;;1.59;92.29004;937.1727;;;;
2023/01/13 01:52:13;;;;;;;1.6;1.1;;;;;;;1.59;92.37988;937.0613;;;;
2023/01/13 01:54:38;;;;;;;1.4;1.3;;;;;;;1.67;92.3418;937.0522;;;;
2023/01/13 01:57:06;;;;;;;3.2;1.4;;;;;;;1.68;91.98535;936.9774;;;;
2023/01/13 01:59:31;;;;;;;2.3;1.5;;;;;;;1.62;91.96289;936.9231;;;;
2023/01/13 02:04:49;;;;;;;1.1;1;;;;;;;1.57;91.99609;936.9122;;;;
2023/01/13 02:07:09;;;;;;;1.2;1;;;;;;;1.57;92.11914;936.8815;;;;
2023/01/13 02:10:06;;;;;;;1.6;1.2;;;;;;;1.54;92.52637;936.904;;;;
2023/01/13 02:12:31;;;;;;;2;1.5;;;;;;;1.44;92.8623;936.9519;;;;
2023/01/13 02:16:16;;;;;;;2.4;1.5;;;;;;;1.38;93.35156;936.9285;;;;
2023/01/13 02:18:38;;;;;;;2.3;1.4;;;;;;;1.33;93.98926;936.8692;;;;
2023/01/13 02:21:03;;;;;;;2.5;1.5;;;;;;;1.38;94.09082;936.7859;;;;
2023/01/13 02:25:54;;;;;;;2.8;1.6;;;;;;;1.4;94.08398;936.7416;;;;
2023/01/13 02:28:22;;;;;;;1.7;1.5;;;;;;;1.36;94.1748;936.5961;;;;
2023/01/13 02:33:18;;;;;;;2.2;1.4;;;;;;;1.41;93.87207;936.6122;;;;
2023/01/13 02:35:43;;;;;;;1.5;1.4;;;;;;;1.29;93.90137;936.6394;;;;
2023/01/13 02:38:08;;;;;;;2.1;1.5;;;;;;;1.25;94.3623;936.6496;;;;
2023/01/13 02:40:37;;;;;;;3.1;1.4;;;;;;;1.32;94.15527;936.5873;;;;
2023/01/13 02:46:19;;;;;;;2;1.4;;;;;;;1.4;94.30566;936.5198;;;;
2023/01/13 02:48:46;;;;;;;2.3;1.5;;;;;;;1.58;93.35059;936.3383;;;;
2023/01/13 02:51:11;;;;;;;2.1;1.5;;;;;;;1.59;93.09766;936.3936;;;;
2023/01/13 02:53:39;;;;;;;1.4;1.3;;;;;;;1.53;93.22852;936.2233;;;;
2023/01/13 02:56:04;;;;;;;1.3;1.2;;;;;;;1.55;92.95313;936.2431;;;;
2023/01/13 02:58:30;;;;;;;3.8;1.6;;;;;;;1.52;93.04785;936.1195;;;;
2023/01/13 03:00:56;;;;;;;1.8;1.7;;;;;;;1.49;93.16504;936.071;;;;
2023/01/13 03:03:21;;;;;;;2.6;1.2;;;;;;;1.56;92.95508;936.2094;;;;
2023/01/13 03:06:12;;;;;;;1.3;1.1;;;;;;;1.63;92.54395;936.1733;;;;
2023/01/13 03:08:41;;;;;;;1.9;1.8;;;;;;;1.64;91.85449;936.1811;;;;
2023/01/13 03:12:52;;;;;;;1.6;1.2;;;;;;;1.73;91.41602;936.2236;;;;
2023/01/13 03:15:02;;;;;;;2.4;1.4;;;;;;;1.74;91.01563;936.1485;;;;
2023/01/13 03:17:27;;;;;;;3;1.6;;;;;;;1.85;90.5127;936.1476;;;;
2023/01/13 03:19:52;;;;;;;1.6;1.2;;;;;;;1.94;89.83984;936.2642;;;;
2023/01/13 03:22:17;;;;;;;1.7;1;;;;;;;2;89.21387;936.1824;;;;
2023/01/13 03:24:42;;;;;;;3;1.9;;;;;;;2.08;89.16309;936.1898;;;;
2023/01/13 03:27:10;;;;;;;3.6;1.9;;;;;;;1.99;90.8252;936.1822;;;;
2023/01/13 03:29:35;;;;;;;4;1.7;;;;;;;1.89;91.42871;936.1979;;;;
2023/01/13 03:32:00;;;;;;;2.3;1.4;;;;;;;1.99;90.49902;936.1608;;;;
2023/01/13 03:34:57;;;;;;;2;1.3;;;;;;;2.08;90.12402;936.1558;;;;
2023/01/13 03:37:22;;;;;;;1.4;1;;;;;;;2.13;87.80859;936.0424;;;;
2023/01/13 03:39:47;;;;;;;2.8;1.3;;;;;;;2.13;87.7959;936.0533;;;;
2023/01/13 03:42:12;;;;;;;2;1.4;;;;;;;2.05;87.61328;936.0613;;;;
2023/01/13 03:44:38;;;;;;;3.9;1.3;;;;;;;1.93;88.95215;936.0478;;;;
2023/01/13 03:47:03;;;;;;;1.6;1.3;;;;;;;1.74;90.02148;935.965;;;;
2023/01/13 03:49:28;;;;;;;2;1.2;;;;;;;2.01;87.82715;935.887;;;;
2023/01/13 03:51:54;;;;;;;1.7;1.5;;;;;;;2.19;87.10352;935.8159;;;;
2023/01/13 03:54:18;;;;;;;1.2;1;;;;;;;2.36;85.37793;935.8678;;;;
2023/01/13 03:59:34;;;;;;;1.1;1;;;;;;;;;;;;;
2023/01/13 04:02:37;;;;;;;1.4;1.1;;;;;;;2.59;84.30664;935.7885;;;;
2023/01/13 04:05:03;;;;;;;1.6;1.2;;;;;;;2.47;85.14453;935.832;;;;
2023/01/13 04:07:27;;;;;;;1.1;1;;;;;;;2.36;86.0166;935.8042;;;;
2023/01/13 04:09:55;;;;;;;2.7;1.3;;;;;;;2.26;86.49121;935.7285;;;;
2023/01/13 04:12:20;;;;;;;1.9;1.2;;;;;;;2.19;87.04785;935.7531;;;;
2023/01/13 04:14:45;;;;;;;1.2;1.1;;;;;;;2.22;86.66309;935.907;;;;
2023/01/13 04:17:14;;;;;;;1.6;1.1;;;;;;;2.25;86.8252;935.8956;;;;
2023/01/13 04:19:39;;;;;;;1.4;1;;;;;;;2.24;86.85742;935.9305;;;;
2023/01/13 04:22:05;;;;;;;5.2;2.5;;;;;;;2.24;86.93359;935.9742;;;;
2023/01/13 04:24:30;;;;;;;6.8;3.2;;;;;;;2.06;87.60352;935.9369;;;;
2023/01/13 04:26:57;;;;;;;10;3.8;;;;;;;1.93;88.5918;935.9496;;;;
2023/01/13 04:29:22;;;;;;;5.8;2.9;;;;;;;1.96;88.5459;935.7587;;;;
2023/01/13 04:31:47;;;;;;;3;2.2;;;;;;;1.95;88.64453;935.7159;;;;
2023/01/13 04:34:12;;;;;;;2.6;1.6;;;;;;;1.9;88.83496;935.5867;;;;
2023/01/13 04:36:37;;;;;;;2.1;1.3;;;;;;;1.94;88.98926;935.4995;;;;
2023/01/13 04:39:05;;;;;;;4.7;2.8;;;;;;;2.01;89.14844;935.6641;;;;
2023/01/13 04:41:56;;;;;;;4.1;2.8;;;;;;;2.09;88.75098;935.6741;;;;
2023/01/13 04:43:55;;;;;;;2.6;2.1;;;;;;;2.12;88.61133;935.6484;;;;
2023/01/13 04:46:23;;;;;;;1.9;1.5;;;;;;;2.12;88.37598;935.54;;;;
2023/01/13 04:48:48;;;;;;;1.4;1.3;;;;;;;2.04;88.21582;935.4147;;;;
2023/01/13 04:51:13;;;;;;;2.1;1.9;;;;;;;2.07;89.06055;935.3295;;;;
2023/01/13 04:53:41;;;;;;;2.9;1.8;;;;;;;2.06;88.52148;935.3677;;;;
2023/01/13 04:56:06;;;;;;;2.6;2.1;;;;;;;2.17;88.35352;935.3706;;;;
2023/01/13 04:58:31;;;;;;;3.5;2.3;;;;;;;2.29;87.10156;935.2637;;;;
2023/01/13 05:00:56;;;;;;;4.6;2.9;;;;;;;2.21;87.93555;935.3669;;;;
2023/01/13 05:03:25;;;;;;;2.4;1.8;;;;;;;2.12;88.84668;935.343;;;;
2023/01/13 05:05:50;;;;;;;3.1;1.8;;;;;;;2.05;88.90039;935.2581;;;;
2023/01/13 05:08:15;;;;;;;3.4;2;;;;;;;2.03;89.54395;935.1802;;;;
2023/01/13 05:10:43;;;;;;;5.1;3.7;;;;;;;2.02;89.94531;935.2725;;;;
2023/01/13 05:18:05;;;;;;;3.7;2.4;;;;;;;1.96;90.28906;935.2608;;;;
2023/01/13 05:26:36;;;;;;;10.1;5.1;;;;;;;2.08;89.75488;935.0934;;;;
2023/01/13 05:29:05;;;;;;;7.7;4.4;;;;;;;2.03;90.1709;935.1735;;;;
2023/01/13 05:31:30;;;;;;;7;3.7;;;;;;;2.05;89.80469;935.038;;;;
2023/01/13 05:33:57;;;;;;;6.1;3.3;;;;;;;2.01;89.79785;935.0053;;;;
2023/01/13 05:36:23;;;;;;;6.1;2.9;;;;;;;1.98;90.42773;934.927;;;;
2023/01/13 05:38:52;;;;;;;7.1;4.7;;;;;;;2.12;90.13379;934.7838;;;;
2023/01/13 05:43:48;;;;;;;4.1;2.8;;;;;;;2.21;88.84473;934.9344;;;;
2023/01/13 05:46:19;;;;;;;4.9;2.6;;;;;;;2.3;88.18945;934.8044;;;;
2023/01/13 05:48:44;;;;;;;2.7;2;;;;;;;2.31;87.54199;934.827;;;;
2023/01/13 05:51:10;;;;;;;3;1.7;;;;;;;2.36;87.50684;934.8631;;;;
2023/01/13 05:53:35;;;;;;;2.2;1.7;;;;;;;2.39;86.82129;934.8894;;;;
2023/01/13 05:56:03;;;;;;;3.3;2.3;;;;;;;2.53;86.62305;934.8533;;;;
2023/01/13 05:58:28;;;;;;;9.1;5.2;;;;;;;2.58;86.80176;934.9101;;;;
2023/01/13 06:00:56;;;;;;;18.5;9.1;;;;;;;2.63;86.79102;934.927;;;;
2023/01/13 06:03:21;;;;;;;8.5;4.7;;;;;;;2.69;86.37793;934.9174;;;;
2023/01/13 06:05:52;;;;;;;8;4.9;;;;;;;2.7;85.80566;934.9789;;;;
2023/01/13 06:08:15;;;;;;;6.3;4;;;;;;;2.75;85.24707;935.02;;;;
2023/01/13 06:11:45;;;;;;;4.9;3.6;;;;;;;2.73;84.89355;934.9475;;;;
2023/01/13 06:14:09;;;;;;;6.7;4.4;;;;;;;2.55;85.93359;934.8722;;;;
2023/01/13 06:16:37;;;;;;;6.6;4.7;;;;;;;2.71;85.6748;935.0234;;;;
2023/01/13 06:19:02;;;;;;;6.7;4.6;;;;;;;2.79;84.93848;934.9659;;;;
2023/01/13 06:21:27;;;;;;;5.9;3.9;;;;;;;2.7;85.50293;935.0212;;;;
2023/01/13 06:23:53;;;;;;;4.8;3.9;;;;;;;2.64;85.62695;934.955;;;;
2023/01/13 06:29:58;;;;;;;6.5;4.3;;;;;;;2.69;86.32031;934.9635;;;;
2023/01/13 06:32:26;;;;;;;7.1;5.1;;;;;;;2.75;85.94238;934.9619;;;;
2023/01/13 06:38:46;;;;;;;7.5;5.2;;;;;;;2.84;86.3291;935.0497;;;;
2023/01/13 06:41:12;;;;;;;6.5;4.1;;;;;;;2.88;86.2373;935.0616;;;;
2023/01/13 06:43:39;;;;;;;4.3;2.8;;;;;;;2.85;86.09473;935.0313;;;;
2023/01/13 06:46:04;;;;;;;4.5;2.9;;;;;;;2.96;85.5918;935.0891;;;;
2023/01/13 06:48:34;;;;;;;6.1;3;;;;;;;3.06;85.19629;935.0345;;;;
2023/01/13 06:50:58;;;;;;;4.4;3.1;;;;;;;3.09;84.9209;935.0119;;;;
2023/01/13 06:53:26;;;;;;;5.4;3.2;;;;;;;3.1;84.77734;934.9729;;;;
2023/01/13 06:55:51;;;;;;;3.4;2.5;;;;;;;3.03;84.93066;934.9281;;;;
2023/01/13 06:58:18;;;;;;;3.8;2.5;;;;;;;3.03;85.09961;934.8785;;;;
2023/01/13 07:00:43;;;;;;;2.4;1.9;;;;;;;3.02;84.72754;934.9247;;;;
2023/01/13 07:03:14;;;;;;;3.2;1.9;;;;;;;3.09;85.23535;934.9852;;;;
2023/01/13 07:05:45;;;;;;;1.5;1.4;;;;;;;3.12;83.93945;934.9238;;;;
2023/01/13 07:08:13;;;;;;;2;1.5;;;;;;;3.2;83.78711;934.9272;;;;
2023/01/13 07:10:38;;;;;;;1.3;1.1;;;;;;;3.32;82.97949;934.9373;;;;
2023/01/13 07:15:39;;;;;;;4.6;2.3;;;;;;;3.38;83.02539;934.9423;;;;
2023/01/13 07:18:06;;;;;;;3.7;2.7;;;;;;;3.44;82.09473;934.9053;;;;
2023/01/13 07:20:32;;;;;;;6.9;4;;;;;;;3.44;82.17285;934.9227;;;;
2023/01/13 07:22:57;;;;;;;7.5;4.6;;;;;;;3.29;82.86035;934.9584;;;;
2023/01/13 07:25:31;;;;;;;7.9;5.2;;;;;;;3.43;82.30371;935.038;;;;
2023/01/13 07:27:57;;;;;;;10;6.5;;;;;;;3.4;82.44531;935.0531;;;;
2023/01/13 07:30:23;;;;;;;7.3;4.9;;;;;;;3.38;82.10254;935.0123;;;;
2023/01/13 07:32:53;;;;;;;8;4.9;;;;;;;3.31;82.52637;935.0298;;;;
2023/01/13 07:35:25;;;;;;;12.6;7.1;;;;;;;3.35;82.5918;935.0847;;;;
2023/01/13 07:37:54;;;;;;;5.9;3.7;;;;;;;3.49;82.10254;935.1106;;;;
2023/01/13 07:40:19;;;;;;;6.9;4.2;;;;;;;3.64;81.04102;935.1563;;;;
2023/01/13 07:45:22;;;;;;;5.7;4.1;;;;;;;3.77;81.6084;935.1627;;;;
2023/01/13 07:47:53;;;;;;;5.6;3.8;;;;;;;3.62;82.72266;935.2147;;;;
2023/01/13 07:50:17;;;;;;;4.4;3.5;;;;;;;3.55;82.80957;935.261;;;;
2023/01/13 07:52:47;;;;;;;5.3;4;;;;;;;3.61;83.03516;935.2144;;;;
2023/01/13 07:55:15;;;;;;;5;3.4;;;;;;;3.69;82.12988;935.3113;;;;
2023/01/13 07:57:40;;;;;;;4.6;3.4;;;;;;;3.79;81.78027;935.2783;;;;
2023/01/13 08:00:11;;;;;;;11.5;6.2;;;;;;;3.85;81.75684;935.296;;;;
2023/01/13 08:02:36;;;;;;;16.6;9.2;;;;;;;3.99;81.85059;935.2527;;;;
2023/01/13 08:05:05;;;;;;;7.4;4.2;;;;;;;4.12;80.91992;935.2701;;;;
2023/01/13 08:07:30;;;;;;;6.9;3.6;;;;;;;4.18;80.60449;935.3506;;;;
2023/01/13 08:09:59;;;;;;;7;4.2;;;;;;;4.31;80.43848;935.3474;;;;
2023/01/13 08:14:52;;;;;;;6.3;4.2;;;;;;;4.3;80.79688;935.4647;;;;
2023/01/13 08:17:18;;;;;;;8.5;4;;;;;;;4.31;80.60547;935.635;;;;
2023/01/13 08:19:45;;;;;;;7.1;4.2;;;;;;;4.42;80.52637;935.5605;;;;
2023/01/13 08:22:11;;;;;;;8.6;5.2;;;;;;;4.4;80.2627;935.6668;;;;
2023/01/13 08:24:40;;;;;;;14.2;8.9;;;;;;;4.34;80.29688;935.6351;;;;
2023/01/13 08:27:05;;;;;;;12.6;7.7;;;;;;;4.48;80.42578;935.5148;;;;
2023/01/13 08:29:37;;;;;;;10.2;7.2;;;;;;;4.62;79.29102;935.567;;;;
2023/01/13 08:32:04;;;;;;;8.9;5.4;;;;;;;4.65;79.35254;935.6277;;;;
2023/01/13 08:34:29;;;;;;;8.7;5.2;;;;;;;4.77;79.02539;935.6222;;;;
2023/01/13 08:36:57;;;;;;;9.2;5.9;;;;;;;4.78;79.45703;935.5422;;;;
2023/01/13 08:39:22;;;;;;;10.9;6.3;;;;;;;4.88;78.76563;935.4077;;;;
2023/01/13 08:41:57;;;;;;;5.9;4.1;;;;;;;4.96;75.53418;935.4659;;;;
2023/01/13 08:44:19;;;;;;;5.2;3.8;;;;;;;5.13;73.91895;935.4483;;;;
2023/01/13 08:46:47;;;;;;;4.5;3.2;;;;;;;5.42;74.30566;935.4512;;;;
2023/01/13 08:49:12;;;;;;;3.6;2.5;;;;;;;5.59;72.89258;935.4388;;;;
2023/01/13 08:51:37;;;;;;;4.3;3.1;;;;;;;5.65;72.87891;935.4032;;;;
2023/01/13 08:54:05;;;;;;;7.1;4.9;;;;;;;5.65;74.2334;935.4278;;;;
2023/01/13 08:56:30;;;;;;;7.9;5.8;;;;;;;5.83;73.88086;935.3293;;;;
2023/01/13 08:58:58;;;;;;;5.6;4.1;;;;;;;5.84;72.56152;935.2333;;;;
2023/01/13 09:01:23;;;;;;;6.3;4.4;;;;;;;5.93;70.83887;935.2578;;;;
2023/01/13 09:03:48;;;;;;;7.6;4.5;;;;;;;5.97;69.6582;935.2294;;;;
2023/01/13 09:06:15;;;;;;;3.6;3.2;;;;;;;6.15;68.56836;935.2595;;;;
2023/01/13 09:08:40;;;;;;;15.7;8;;;;;;;6.29;66.97363;935.2729;;;;
2023/01/13 09:13:34;;;;;;;51.4;26.8;;;;;;;6.43;68.29688;935.2611;;;;
2023/01/13 09:15:59;;;;;;;21.3;11.4;;;;;;;6.39;69.76074;935.3667;;;;
2023/01/13 09:18:28;;;;;;;8;5.2;;;;;;;6.43;68.10449;935.4302;;;;
2023/01/13 09:20:57;;;;;;;7.4;3.4;;;;;;;6.37;69.27051;935.4769;;;;
2023/01/13 09:23:22;;;;;;;6.5;3.3;;;;;;;6.37;69.63281;935.4857;;;;
2023/01/13 09:25:50;;;;;;;6.1;4.5;;;;;;;6.39;72.29297;935.498;;;;
2023/01/13 09:28:14;;;;;;;5.9;4.3;;;;;;;6.52;72.74512;935.5366;;;;
2023/01/13 09:30:42;;;;;;;10.9;7.2;;;;;;;6.63;71.0332;935.4899;;;;
2023/01/13 09:35:32;;;;;;;9.8;4.4;;;;;;;6.37;70.25391;935.6913;;;;
2023/01/13 09:38:02;;;;;;;9.7;4.2;;;;;;;6.44;68.08301;935.7263;;;;
2023/01/13 09:40:27;;;;;;;10.3;4.1;;;;;;;6.57;67.51563;935.6758;;;;
2023/01/13 09:45:24;;;;;;;7.2;4;;;;;;;6.83;68.62012;935.6752;;;;
2023/01/13 09:47:54;;;;;;;11.1;4.5;;;;;;;6.96;69.29883;935.6793;;;;
2023/01/13 09:50:23;;;;;;;10.4;4.7;;;;;;;7.17;68.49414;935.631;;;;
2023/01/13 09:52:48;;;;;;;12.7;5.1;;;;;;;7.33;68.31445;935.601;;;;
2023/01/13 09:55:19;;;;;;;11.4;5.7;;;;;;;7.49;68.71484;935.5136;;;;
2023/01/13 09:57:44;;;;;;;10.8;5.4;;;;;;;7.52;69.37793;935.5765;;;;
2023/01/13 10:00:10;;;;;;;16.1;6.3;;;;;;;7.59;69.02734;935.5818;;;;
2023/01/13 10:02:46;;;;;;;10.8;5.5;;;;;;;7.53;69.33301;935.4675;;;;
2023/01/13 10:05:11;;;;;;;11.8;6;;;;;;;7.57;69.23633;935.533;;;;
2023/01/13 10:07:36;;;;;;;9;5.3;;;;;;;7.6;67.90527;935.4163;;;;
2023/01/13 10:10:01;;;;;;;10.7;4.4;;;;;;;7.59;64.55762;935.4256;;;;
2023/01/13 10:14:51;;;;;;;13.3;4;;;;;;;7.76;66.2959;935.2463;;;;
2023/01/13 10:17:19;;;;;;;7.9;3.3;;;;;;;8;64.88086;935.1177;;;;
2023/01/13 10:19:44;;;;;;;7;2.6;;;;;;;8.16;64.19043;935.1439;;;;
2023/01/13 10:22:22;;;;;;;2.4;1.5;;;;;;;8.26;61.3418;935.1326;;;;
2023/01/13 10:24:47;;;;;;;2;1.3;;;;;;;8.39;60.54297;935.0109;;;;
2023/01/13 10:27:12;;;;;;;2.9;1.4;;;;;;;8.42;55.91113;934.9084;;;;
2023/01/13 10:29:37;;;;;;;3.5;1.9;;;;;;;8.59;57.68262;934.9564;;;;
2023/01/13 10:32:07;;;;;;;4.3;1.5;;;;;;;8.92;58.06836;934.874;;;;
2023/01/13 10:34:32;;;;;;;1.6;1.3;;;;;;;9.24;58.37305;934.7886;;;;
2023/01/13 10:37:00;;;;;;;1;0.9;;;;;;;9.38;56.66211;934.8167;;;;
2023/01/13 10:39:23;;;;;;;1.4;1.1;;;;;;;9.24;55.15234;934.7664;;;;
2023/01/13 10:41:49;;;;;;;2.1;1;;;;;;;9.11;56.75098;934.6744;;;;
2023/01/13 10:44:14;;;;;;;26;4.5;;;;;;;9.03;56.22949;934.6697;;;;
2023/01/13 10:46:39;;;;;;;4.1;1.6;;;;;;;9.11;57.83203;934.6252;;;;
2023/01/13 10:49:07;;;;;;;4.8;1.8;;;;;;;9.33;56.16504;934.7353;;;;
2023/01/13 10:51:36;;;;;;;4.5;2.2;;;;;;;9.38;52.90527;934.7453;;;;
2023/01/13 10:54:02;;;;;;;3.5;1.8;;;;;;;9.51;53.05762;934.8483;;;;
2023/01/13 10:56:28;;;;;;;2.6;1.8;;;;;;;9.64;54.78223;934.9291;;;;
2023/01/13 10:58:53;;;;;;;3.7;1.7;;;;;;;9.71;54.00586;934.9702;;;;
2023/01/13 11:01:24;;;;;;;5.6;1.9;;;;;;;9.88;54.52637;935.0566;;;;
2023/01/13 11:03:47;;;;;;;7.9;2.5;;;;;;;10.1;53.06152;935.0886;;;;
2023/01/13 11:06:17;;;;;;;4.1;2.1;;;;;;;10.37;52.34082;934.9991;;;;
2023/01/13 11:08:44;;;;;;;3.9;1.9;;;;;;;10.71;51.54883;934.8115;;;;
2023/01/13 11:11:11;;;;;;;10.9;4.7;;;;;;;11;51.60645;934.8205;;;;
2023/01/13 11:14:31;;;;;;;12.8;4.1;;;;;;;11.06;50.19629;934.7548;;;;
2023/01/13 11:16:05;;;;;;;6.5;3.4;;;;;;;11.31;51.54004;934.6948;;;;
2023/01/13 11:18:30;;;;;;;13;3.6;;;;;;;11.4;51.17285;934.7308;;;;
2023/01/13 11:20:55;;;;;;;11.7;3.8;;;;;;;11.74;52.08398;934.6076;;;;
2023/01/13 11:23:26;;;;;;;7.8;3;;;;;;;12.14;51.58105;934.5383;;;;
2023/01/13 11:25:50;;;;;;;6;2.4;;;;;;;12.41;49.68652;934.5569;;;;
2023/01/13 11:28:14;;;;;;;3.8;1.5;;;;;;;12.3;48.1377;934.5574;;;;
2023/01/13 11:30:39;;;;;;;2.8;1.6;;;;;;;11.3;48.25586;934.5561;;;;
2023/01/13 11:33:04;;;;;;;3.4;1.7;;;;;;;11.01;50.29199;934.7281;;;;
2023/01/13 11:35:33;;;;;;;16.2;2.8;;;;;;;11.11;51.15039;934.8767;;;;
2023/01/13 11:38:00;;;;;;;9.3;2;;;;;;;11.13;51.9873;934.9309;;;;
2023/01/13 11:40:24;;;;;;;2.3;1.5;;;;;;;11.16;53.03223;934.9836;;;;
2023/01/13 11:42:49;;;;;;;4.4;1.7;;;;;;;11.15;51.93164;935.0815;;;;
2023/01/13 11:45:19;;;;;;;4.4;1.8;;;;;;;11.16;52.83789;935.1558;;;;
2023/01/13 11:47:44;;;;;;;3.1;2.1;;;;;;;11.16;52.96289;935.1605;;;;
2023/01/13 11:50:10;;;;;;;5.8;1.8;;;;;;;10.89;54.83691;935.0664;;;;
2023/01/13 11:52:40;;;;;;;3.1;1.4;;;;;;;10.8;54.65527;934.8389;;;;
2023/01/13 11:55:05;;;;;;;2;1.3;;;;;;;10.8;55.33008;934.7106;;;;
2023/01/13 11:57:30;;;;;;;1.6;1.3;;;;;;;10.86;55.90918;934.7174;;;;
2023/01/13 11:59:55;;;;;;;8.3;2.6;;;;;;;10.97;56.72168;934.748;;;;
2023/01/13 12:02:25;;;;;;;5.1;2.9;;;;;;;10.88;55.53418;934.637;;;;
2023/01/13 12:04:56;;;;;;;10.5;2.6;;;;;;;11.15;55.13379;934.531;;;;
2023/01/13 12:07:24;;;;;;;7.8;2.7;;;;;;;11.41;52.78809;934.5294;;;;
2023/01/13 12:09:50;;;;;;;5.1;1.8;;;;;;;11.35;51.56836;934.4476;;;;
2023/01/13 12:12:21;;;;;;;3.1;1.6;;;;;;;11.55;51.55762;934.3906;;;;
2023/01/13 12:14:42;;;;;;;4.3;1.4;;;;;;;11.43;53.36133;934.3875;;;;
2023/01/13 12:17:07;;;;;;;5.1;1.7;;;;;;;11.46;53.98242;934.3619;;;;
2023/01/13 12:19:35;;;;;;;7.1;2.5;;;;;;;11.59;53.12988;934.3315;;;;
2023/01/13 12:22:01;;;;;;;1.9;1.3;;;;;;;11.79;53.56641;934.414;;;;
2023/01/13 12:24:26;;;;;;;3.2;1.3;;;;;;;12.07;53.40625;934.5465;;;;
2023/01/13 12:26:55;;;;;;;1.6;1.1;;;;;;;12.18;52.32031;934.6523;;;;
2023/01/13 12:29:21;;;;;;;2;1.1;;;;;;;12.08;49.91211;934.6948;;;;
2023/01/13 12:31:47;;;;;;;4.8;1.6;;;;;;;11.9;51.41504;934.7667;;;;
2023/01/13 12:34:12;;;;;;;1.9;1.6;;;;;;;11.84;53.12598;934.8506;;;;
2023/01/13 12:36:38;;;;;;;1.7;1.1;;;;;;;11.86;53.47168;934.7819;;;;
2023/01/13 12:39:06;;;;;;;1.8;1;;;;;;;11.88;53.50879;934.7811;;;;
2023/01/13 12:41:35;;;;;;;2.9;0.9;;;;;;;11.93;53.99609;934.8042;;;;
2023/01/13 12:44:19;;;;;;;0.8;0.8;;;;;;;12.14;53.80469;934.6891;;;;
2023/01/13 12:46:28;;;;;;;2.2;1;;;;;;;12.16;54.42578;934.5966;;;;
2023/01/13 12:48:55;;;;;;;1.8;0.9;;;;;;;12.04;55.34961;934.7109;;;;
2023/01/13 12:51:18;;;;;;;2.1;1;;;;;;;12.16;55.2627;934.7274;;;;
2023/01/13 12:53:45;;;;;;;1;0.9;;;;;;;12.28;54.66992;934.5876;;;;
2023/01/13 12:56:10;;;;;;;2.8;1.3;;;;;;;12.41;56.33887;934.6403;;;;
2023/01/13 12:58:36;;;;;;;3.2;1.8;;;;;;;12.82;54.98047;934.6135;;;;
2023/01/13 13:01:05;;;;;;;4.9;3.1;;;;;;;13.19;53.92285;934.5743;;;;
2023/01/13 13:03:29;;;;;;;0.9;0.8;;;;;;;13.4;53.56934;934.5363;;;;
2023/01/13 13:05:54;;;;;;;1.6;0.7;;;;;;;13.41;54.11133;934.4714;;;;
2023/01/13 13:08:19;;;;;;;2;0.9;;;;;;;13.4;53.34082;934.4691;;;;
2023/01/13 13:10:48;;;;;;;0.9;0.7;;;;;;;13.26;53.50684;934.5885;;;;
2023/01/13 13:13:19;;;;;;;1.5;0.8;;;;;;;13.08;53.48438;934.6186;;;;
2023/01/13 13:15:40;;;;;;;1.5;0.7;;;;;;;12.83;54.53223;934.7988;;;;
2023/01/13 13:18:09;;;;;;;0.5;0.5;;;;;;;12.58;56.01563;934.8744;;;;
2023/01/13 13:20:38;;;;;;;0.5;0.5;;;;;;;12.13;57.79102;934.9813;;;;
2023/01/13 13:23:03;;;;;;;0.8;0.8;;;;;;;11.8;60.65723;935.0697;;;;
2023/01/13 13:25:28;;;;;;;0.7;0.6;;;;;;;11.53;61.77344;934.92;;;;
2023/01/13 13:27:53;;;;;;;1.4;0.6;;;;;;;11.06;64.49707;934.9523;;;;
2023/01/13 13:30:18;;;;;;;1.1;1;;;;;;;10.69;68.19824;935.0105;;;;
2023/01/13 13:32:47;;;;;;;0.4;0.2;;;;;;;10.17;66.16602;935.0873;;;;
2023/01/13 13:35:12;;;;;;;1.4;0.8;;;;;;;10.16;67.42969;935.0539;;;;
2023/01/13 13:47:31;;;;;;;2;1.3;;;;;;;10.26;68.46094;935.0964;;;;
2023/01/13 13:49:59;;;;;;;3.7;1.6;;;;;;;10.22;68.64941;935.093;;;;
2023/01/13 13:52:22;;;;;;;2.1;1.3;;;;;;;10;70.50781;935.1139;;;;
2023/01/13 13:54:48;;;;;;;1;0.9;;;;;;;9.99;71.09766;935.1273;;;;
2023/01/13 13:57:12;;;;;;;2.4;1.6;;;;;;;10.03;71.19629;935.1382;;;;
2023/01/13 13:59:37;;;;;;;3;1.5;;;;;;;9.99;71.57813;935.1369;;;;
2023/01/13 14:02:02;;;;;;;2.6;1.8;;;;;;;9.97;71.83789;935.1869;;;;
2023/01/13 14:04:29;;;;;;;1.7;1.3;;;;;;;9.62;73.52051;935.254;;;;
2023/01/13 14:06:54;;;;;;;1.2;0.8;;;;;;;9.68;73.48535;935.2799;;;;
2023/01/13 14:09:21;;;;;;;1.9;1.3;;;;;;;9.89;73.95605;935.3398;;;;
2023/01/13 14:11:47;;;;;;;2.2;1.5;;;;;;;10.1;73.83203;935.4059;;;;
2023/01/13 14:14:14;;;;;;;1.3;1.1;;;;;;;10.21;73.61035;935.4964;;;;
2023/01/13 14:16:45;;;;;;;1.2;1.1;;;;;;;10.18;73.95801;935.5019;;;;
2023/01/13 14:19:14;;;;;;;2.2;1.7;;;;;;;9.96;74.95898;935.4922;;;;
2023/01/13 14:21:39;;;;;;;1.5;1.4;;;;;;;9.8;76.10449;935.4494;;;;
2023/01/13 14:24:09;;;;;;;0.6;0.6;;;;;;;9.91;76.69727;935.4895;;;;
2023/01/13 14:26:29;;;;;;;1.3;0.7;;;;;;;9.88;77.97656;935.5751;;;;
2023/01/13 14:28:54;;;;;;;0.4;0.4;;;;;;;9.85;79.2373;935.6369;;;;
2023/01/13 14:31:21;;;;;;;1;0.8;;;;;;;9.77;80.33984;935.6487;;;;
2023/01/13 14:33:46;;;;;;;1.8;1.3;;;;;;;9.63;81.55664;935.8184;;;;
2023/01/13 14:36:17;;;;;;;3;2;;;;;;;9.4;83.19727;935.815;;;;
2023/01/13 14:38:47;;;;;;;2.8;1.8;;;;;;;9.43;83.04492;935.8458;;;;
2023/01/13 14:41:12;;;;;;;2.6;2;;;;;;;9.43;83.43359;935.845;;;;
2023/01/13 14:43:39;;;;;;;2.3;1.9;;;;;;;9.19;85.11523;935.8333;;;;
2023/01/13 14:46:04;;;;;;;3;1.7;;;;;;;8.9;86.66211;935.9211;;;;
2023/01/13 14:48:34;;;;;;;2.1;1.3;;;;;;;8.65;88.33887;936.0297;;;;
2023/01/13 14:50:55;;;;;;;3.3;1.8;;;;;;;8.67;87.92383;935.9609;;;;
2023/01/13 14:53:23;;;;;;;3.9;2.6;;;;;;;8.53;88.37305;936.0461;;;;
2023/01/13 14:55:48;;;;;;;1.7;1.5;;;;;;;8.55;88.20508;936.0955;;;;
2023/01/13 14:58:13;;;;;;;2.3;1.2;;;;;;;8.56;88.68359;936.2281;;;;
2023/01/13 15:00:39;;;;;;;1.2;1.1;;;;;;;8.4;89.51563;936.4256;;;;
2023/01/13 15:03:05;;;;;;;1.2;1;;;;;;;8.3;89.74512;936.5183;;;;
2023/01/13 15:05:30;;;;;;;0.9;0.8;;;;;;;8.34;89.38867;936.3463;;;;
2023/01/13 15:07:57;;;;;;;0.6;0.6;;;;;;;8.06;87.49121;936.3176;;;;
2023/01/13 15:10:22;;;;;;;1;0.4;;;;;;;7.79;87.9834;936.358;;;;
2023/01/13 15:12:49;;;;;;;3.3;0.7;;;;;;;7.72;88.71484;936.5659;;;;
2023/01/13 15:15:14;;;;;;;0.5;0.4;;;;;;;7.72;89.14648;936.7434;;;;
2023/01/13 15:17:45;;;;;;;1.1;0.5;;;;;;;7.74;89.49219;936.7589;;;;
2023/01/13 15:20:12;;;;;;;0.7;0.6;;;;;;;7.57;89.16113;936.926;;;;
2023/01/13 15:22:37;;;;;;;0.8;0.6;;;;;;;7.52;87.73438;936.9718;;;;
2023/01/13 15:25:04;;;;;;;1.5;0.7;;;;;;;7.57;88.22168;937.1138;;;;
2023/01/13 15:27:30;;;;;;;1.3;0.8;;;;;;;7.61;87.84375;936.9944;;;;
2023/01/13 15:29:57;;;;;;;0.2;0.2;;;;;;;7.32;86.68555;937.0652;;;;
2023/01/13 15:32:23;;;;;;;0.5;0.5;;;;;;;7.4;87.34668;937.3003;;;;
2023/01/13 15:34:52;;;;;;;1.8;1;;;;;;;7.4;88.40039;937.3961;;;;
2023/01/13 15:37:20;;;;;;;2;0.9;;;;;;;7.48;88.66699;937.3529;;;;
2023/01/13 15:39:51;;;;;;;4.1;1.6;;;;;;;7.52;89.56934;937.3892;;;;
2023/01/13 15:47:06;;;;;;;4.8;2.2;;;;;;;7.59;89.07617;937.4596;;;;
2023/01/13 15:49:33;;;;;;;5.4;2.6;;;;;;;7.57;88.14063;937.5344;;;;
2023/01/13 15:51:56;;;;;;;3.4;2.3;;;;;;;7.53;86.79395;937.5685;;;;